Ryno, Nebraska
Current Conditions -  °F | °C
As of 5:53 PM on Friday 28 Nov 2014 (Local Time) from KBBW Reporting Station
Clear Clear  
Wind Chill: 53°   Ceiling: Unl
Heat Index: 53°   Visibility: 9mi
Dew Point: 22°   Wind: 9mph
Humidity: 30%   Direction: 240°WSW
Pressure: 29.66"   Gusts: NA
Location:  41.1872°N, 100.067°W
Report Text: KBBW 282353Z AUTO 24008KT 9SM CLR 12/M06 A2966 RMK AO2 SLP051 T01171056 10228 20094 50002
Loading
Personal Weather Stations






























Interactive Weather Map New forecast layout! Learn more

10-Day Weather Forecast

Advertisements
Track Severe Weather on mobile